Time;durP1;ratioP1;P1;durP2;ratioP2;P2;SDS_P1;SDS_P2;PMS_P1;PMS_P2;Temp;Humidity;BMP_temperature;BMP_pressure;BME280_temperature;BME280_humidity;BME280_pressure;Samples;Min_cycle;Max_cycle;Signal;HPM_P1;HPM_P2
2021/10/31 00:02:11;;;;;;;4.53;2.90;;;23.00;82.80;;;;;;5081015;28;20487;-75
2021/10/31 00:04:39;;;;;;;4.20;2.35;;;22.90;82.00;;;;;;5078325;28;20032;-75
2021/10/31 00:07:06;;;;;;;5.07;2.67;;;22.60;82.50;;;;;;5079212;28;20082;-75
2021/10/31 00:09:34;;;;;;;6.05;2.80;;;22.80;81.60;;;;;;5078371;28;20378;-75
2021/10/31 00:12:02;;;;;;;3.00;2.60;;;22.90;82.40;;;;;;5079531;28;20123;-74
2021/10/31 00:14:29;;;;;;;4.50;2.80;;;23.10;83.40;;;;;;5078664;28;20021;-75
2021/10/31 00:16:59;;;;;;;7.00;2.83;;;23.10;82.40;;;;;;5078078;28;20112;-75
2021/10/31 00:19:28;;;;;;;3.92;2.80;;;22.80;82.60;;;;;;5079527;28;20084;-75
2021/10/31 00:21:56;;;;;;;3.72;2.55;;;22.70;83.60;;;;;;5078449;28;20029;-75
2021/10/31 00:24:23;;;;;;;5.38;2.80;;;22.70;84.40;;;;;;5077865;28;20028;-76
2021/10/31 00:26:51;;;;;;;6.30;2.50;;;23.20;83.00;;;;;;5080683;28;20028;-75
2021/10/31 00:29:18;;;;;;;3.60;2.17;;;23.40;81.50;;;;;;5077414;28;20025;-75
2021/10/31 00:31:46;;;;;;;5.18;2.35;;;23.00;82.00;;;;;;5079322;28;20015;-75
2021/10/31 00:34:13;;;;;;;5.18;2.55;;;23.10;81.30;;;;;;5079143;28;20100;-75
2021/10/31 00:36:41;;;;;;;6.68;3.05;;;23.20;83.90;;;;;;5079052;28;20024;-76
2021/10/31 00:39:08;;;;;;;4.35;2.58;;;23.50;82.70;;;;;;5077714;28;20020;-76
2021/10/31 00:41:35;;;;;;;8.27;3.25;;;23.20;81.80;;;;;;5076335;28;20551;-76
2021/10/31 00:44:03;;;;;;;5.38;2.92;;;23.40;81.70;;;;;;5078139;28;20032;-77
2021/10/31 00:46:31;;;;;;;4.20;2.67;;;23.80;80.70;;;;;;5078805;28;20021;-76
2021/10/31 00:48:58;;;;;;;5.95;2.67;;;24.00;79.40;;;;;;5076494;28;20028;-74
2021/10/31 00:51:30;;;;;;;5.15;2.78;;;23.90;82.20;;;;;;5076902;28;20382;-74
2021/10/31 00:54:00;;;;;;;5.82;2.83;;;23.90;82.10;;;;;;5075785;28;20023;-74
2021/10/31 00:56:29;;;;;;;4.72;2.70;;;24.20;81.50;;;;;;5075053;28;20049;-73
2021/10/31 00:58:56;;;;;;;7.60;2.60;;;24.10;80.10;;;;;;5076648;28;20484;-74
2021/10/31 01:01:27;;;;;;;3.80;2.38;;;23.30;81.80;;;;;;5074990;28;20031;-74
2021/10/31 01:03:56;;;;;;;4.88;2.50;;;22.60;82.30;;;;;;5076193;28;20032;-73
2021/10/31 01:06:58;;;;;;;4.72;2.38;;;22.10;84.60;;;;;;5077259;28;20079;-74
2021/10/31 01:09:31;;;;;;;6.40;2.55;;;21.80;85.30;;;;;;5056469;28;20033;-74
2021/10/31 01:12:29;;;;;;;4.63;2.60;;;21.70;86.20;;;;;;5077717;28;20021;-74
2021/10/31 01:15:19;;;;;;;5.15;2.70;;;21.30;85.60;;;;;;5076328;28;20059;-73
2021/10/31 01:18:07;;;;;;;5.55;2.90;;;20.80;85.50;;;;;;5076026;28;20048;-73
2021/10/31 01:21:04;;;;;;;3.72;2.60;;;20.60;86.20;;;;;;5077536;28;20025;-73
2021/10/31 01:24:18;;;;;;;4.85;2.60;;;20.60;86.70;;;;;;5076823;28;20025;-73
2021/10/31 01:27:26;;;;;;;7.30;3.17;;;20.90;87.40;;;;;;5034894;28;20124;-71
2021/10/31 01:30:10;;;;;;;5.07;2.78;;;20.60;87.10;;;;;;5016829;28;20128;-72
2021/10/31 01:32:40;;;;;;;5.72;3.30;;;20.60;88.00;;;;;;5073826;28;20040;-71
2021/10/31 01:35:21;;;;;;;4.40;2.67;;;20.80;88.70;;;;;;5075320;28;20025;-74
2021/10/31 01:38:19;;;;;;;4.78;2.50;;;20.80;87.90;;;;;;5076490;28;20032;-74
2021/10/31 01:40:56;;;;;;;3.90;2.55;;;20.80;86.40;;;;;;5076336;28;20107;-74
2021/10/31 01:43:41;;;;;;;5.63;3.00;;;21.00;88.20;;;;;;5077492;28;20055;-76
2021/10/31 01:46:25;;;;;;;3.67;2.63;;;21.30;88.30;;;;;;5077062;28;20432;-75
2021/10/31 01:49:13;;;;;;;3.92;2.50;;;22.20;86.20;;;;;;5074403;28;20477;-75
2021/10/31 01:51:57;;;;;;;5.40;3.10;;;23.10;84.30;;;;;;5075674;28;20024;-76
2021/10/31 01:54:50;;;;;;;3.17;2.88;;;23.00;83.60;;;;;;5075013;28;20047;-76
2021/10/31 01:57:22;;;;;;;4.07;2.58;;;23.00;85.10;;;;;;5077073;28;20063;-76
2021/10/31 02:00:01;;;;;;;7.03;2.75;;;22.70;84.00;;;;;;5077175;28;20389;-76
2021/10/31 02:02:34;;;;;;;3.25;2.42;;;23.00;83.40;;;;;;5078377;28;20024;-74
2021/10/31 02:05:02;;;;;;;2.97;2.67;;;22.50;83.10;;;;;;5075259;28;20040;-75
2021/10/31 02:07:31;;;;;;;5.82;2.60;;;22.10;85.40;;;;;;5076038;28;20020;-75
2021/10/31 02:10:00;;;;;;;4.03;3.00;;;21.50;85.50;;;;;;5075832;28;20449;-75
2021/10/31 02:12:29;;;;;;;4.00;2.80;;;21.40;86.50;;;;;;5074128;28;20024;-76
2021/10/31 02:14:58;;;;;;;6.35;2.97;;;21.10;88.00;;;;;;5073938;28;20062;-75
2021/10/31 02:17:25;;;;;;;4.10;2.97;;;21.10;88.30;;;;;;5075444;28;20033;-75
2021/10/31 02:19:55;;;;;;;3.47;2.28;;;20.90;89.20;;;;;;5074713;28;20477;-75
2021/10/31 02:22:29;;;;;;;4.72;2.60;;;20.90;89.00;;;;;;5079637;28;20055;-74
2021/10/31 02:24:57;;;;;;;4.38;2.53;;;21.50;87.10;;;;;;5057319;28;20029;-73
2021/10/31 02:27:30;;;;;;;4.55;2.70;;;21.70;86.50;;;;;;5076206;28;20024;-74
2021/10/31 02:30:00;;;;;;;4.10;2.70;;;22.30;85.70;;;;;;5075894;28;20032;-75
2021/10/31 02:32:31;;;;;;;3.78;2.47;;;22.40;86.40;;;;;;5078249;28;20017;-75
2021/10/31 02:34:59;;;;;;;12.25;3.20;;;21.70;87.20;;;;;;5077263;28;20052;-75
2021/10/31 02:37:30;;;;;;;5.30;2.83;;;21.30;86.60;;;;;;5079394;28;20028;-76
2021/10/31 02:39:58;;;;;;;3.15;2.80;;;21.20;88.70;;;;;;5082155;28;20021;-75
2021/10/31 02:42:25;;;;;;;3.55;3.10;;;22.00;87.90;;;;;;5075659;28;20396;-76
2021/10/31 02:44:52;;;;;;;3.05;2.42;;;22.20;85.70;;;;;;5077368;28;20035;-76
2021/10/31 02:47:47;;;;;;;2.95;2.60;;;22.20;87.70;;;;;;5074759;28;20397;-75
2021/10/31 02:50:21;;;;;;;3.83;2.50;;;23.10;85.60;;;;;;5079865;28;20032;-77
2021/10/31 02:53:16;;;;;;;5.28;2.40;;;23.50;85.80;;;;;;5080792;28;20024;-75
2021/10/31 02:56:20;;;;;;;6.13;3.15;;;22.90;85.80;;;;;;5076639;28;20021;-75
2021/10/31 02:58:53;;;;;;;4.22;2.50;;;23.10;84.80;;;;;;5078401;28;20042;-77
2021/10/31 03:01:22;;;;;;;2.88;2.40;;;23.40;84.60;;;;;;5077269;28;20047;-78
2021/10/31 03:03:54;;;;;;;4.65;2.63;;;23.30;83.90;;;;;;5078770;28;20077;-77
2021/10/31 03:06:22;;;;;;;6.32;2.50;;;23.50;83.70;;;;;;5078387;28;20048;-78
2021/10/31 03:08:51;;;;;;;3.67;2.30;;;23.10;83.40;;;;;;5080186;28;20024;-77
2021/10/31 03:11:19;;;;;;;3.00;2.10;;;23.00;84.10;;;;;;5074977;28;20028;-77
2021/10/31 03:13:46;;;;;;;3.42;2.50;;;23.00;85.20;;;;;;5075762;28;20020;-74
2021/10/31 03:16:14;;;;;;;2.55;2.20;;;23.20;85.60;;;;;;5073584;28;20086;-77
2021/10/31 03:18:41;;;;;;;4.35;2.65;;;23.30;84.20;;;;;;5074103;28;20489;-75
2021/10/31 03:21:09;;;;;;;3.95;2.53;;;23.10;83.80;;;;;;5076482;28;20017;-76
2021/10/31 03:23:37;;;;;;;5.10;2.50;;;23.30;84.70;;;;;;5077116;28;20070;-77
2021/10/31 03:26:04;;;;;;;6.07;2.40;;;23.40;84.00;;;;;;5073260;28;20070;-77
2021/10/31 03:28:32;;;;;;;4.43;2.67;;;24.00;83.80;;;;;;5074709;28;20056;-78
2021/10/31 03:31:02;;;;;;;3.58;2.72;;;24.00;82.90;;;;;;5076750;28;20021;-78
2021/10/31 03:33:30;;;;;;;2.55;2.33;;;23.80;82.60;;;;;;5073579;28;20069;-78
2021/10/31 03:35:57;;;;;;;3.30;2.22;;;23.90;81.00;;;;;;5076814;28;20021;-78
2021/10/31 03:38:25;;;;;;;3.38;2.42;;;23.70;81.50;;;;;;5072760;28;20027;-78
2021/10/31 03:40:53;;;;;;;3.63;2.63;;;23.60;83.00;;;;;;5074128;28;20077;-78
2021/10/31 03:43:21;;;;;;;6.75;2.55;;;23.60;82.90;;;;;;5075214;28;20107;-81
2021/10/31 03:45:52;;;;;;;3.50;2.42;;;23.80;81.90;;;;;;5077445;28;20029;-78
2021/10/31 03:48:20;;;;;;;4.38;3.10;;;23.80;80.10;;;;;;5075777;28;20032;-79
2021/10/31 03:50:47;;;;;;;3.42;2.33;;;23.70;82.70;;;;;;5077751;28;20143;-76
2021/10/31 03:53:14;;;;;;;4.50;2.25;;;23.60;80.30;;;;;;5074738;28;20024;-79
2021/10/31 03:55:42;;;;;;;5.68;2.10;;;23.50;81.10;;;;;;5076147;28;20028;-78
2021/10/31 03:58:09;;;;;;;2.65;2.22;;;23.90;80.40;;;;;;5077051;28;20060;-77
2021/10/31 04:00:37;;;;;;;2.97;2.00;;;23.80;79.00;;;;;;5074930;28;20086;-78
2021/10/31 04:03:05;;;;;;;3.22;2.40;;;23.50;79.20;;;;;;5074453;28;20090;-77
2021/10/31 04:05:32;;;;;;;5.97;2.70;;;23.70;80.00;;;;;;5078498;28;20025;-78
2021/10/31 04:07:59;;;;;;;5.03;2.10;;;23.60;80.30;;;;;;5074245;28;20032;-78
2021/10/31 04:10:27;;;;;;;4.63;2.28;;;23.50;80.30;;;;;;5077918;28;20021;-78
2021/10/31 04:12:56;;;;;;;2.75;2.13;;;23.30;78.80;;;;;;5074947;28;20029;-74
2021/10/31 04:15:23;;;;;;;2.85;2.00;;;23.80;80.80;;;;;;5075940;28;20036;-74
2021/10/31 04:17:51;;;;;;;3.47;2.00;;;23.50;80.20;;;;;;5074278;28;20036;-78
2021/10/31 04:20:18;;;;;;;3.63;1.85;;;23.20;80.90;;;;;;5074327;28;20021;-77
2021/10/31 04:22:47;;;;;;;3.25;2.30;;;22.80;82.80;;;;;;5075173;28;20028;-77
2021/10/31 04:25:15;;;;;;;3.67;2.40;;;23.00;83.20;;;;;;5076909;28;20025;-77
2021/10/31 04:27:43;;;;;;;4.57;2.58;;;23.30;84.40;;;;;;5077165;28;20017;-77
2021/10/31 04:30:14;;;;;;;3.50;2.50;;;23.30;82.50;;;;;;5074044;28;20062;-76
2021/10/31 04:32:42;;;;;;;5.90;2.70;;;23.30;83.10;;;;;;5072849;28;20074;-74
2021/10/31 04:35:10;;;;;;;3.90;2.72;;;23.20;82.80;;;;;;5074409;28;20023;-75
2021/10/31 04:37:41;;;;;;;3.15;2.30;;;23.40;84.40;;;;;;5075645;28;20020;-75
2021/10/31 04:40:12;;;;;;;4.65;2.70;;;23.70;82.70;;;;;;5077265;28;20055;-75
2021/10/31 04:42:40;;;;;;;4.10;2.72;;;23.60;83.80;;;;;;5078816;28;20035;-74
2021/10/31 04:45:08;;;;;;;3.17;2.53;;;23.60;83.90;;;;;;5077920;28;20062;-73
2021/10/31 04:47:36;;;;;;;4.05;2.50;;;23.30;83.90;;;;;;5077868;28;20025;-74
2021/10/31 04:50:04;;;;;;;4.45;2.92;;;23.40;83.70;;;;;;5075545;28;20025;-77
2021/10/31 04:52:32;;;;;;;4.43;2.30;;;23.40;84.30;;;;;;5078023;28;20115;-74
2021/10/31 04:55:00;;;;;;;3.58;2.70;;;23.40;83.70;;;;;;5077907;28;20066;-74
2021/10/31 04:57:27;;;;;;;4.57;2.60;;;22.60;83.30;;;;;;5077154;28;20055;-78
2021/10/31 04:59:54;;;;;;;4.88;2.60;;;22.80;84.70;;;;;;5077316;28;20032;-76
2021/10/31 05:02:22;;;;;;;4.50;2.40;;;23.10;84.70;;;;;;5077612;28;20052;-77
2021/10/31 05:04:49;;;;;;;4.25;2.10;;;23.30;83.50;;;;;;5077106;28;20032;-76
2021/10/31 05:07:17;;;;;;;4.63;2.20;;;23.40;84.70;;;;;;5077669;28;20032;-77
2021/10/31 05:09:44;;;;;;;5.00;2.22;;;22.10;85.90;;;;;;5079864;28;20106;-79
2021/10/31 05:12:12;;;;;;;3.85;2.33;;;22.40;87.40;;;;;;5078348;28;20021;-77
2021/10/31 05:14:46;;;;;;;2.53;2.28;;;22.70;86.70;;;;;;5078483;28;20096;-77
2021/10/31 05:17:13;;;;;;;3.78;2.10;;;22.70;86.90;;;;;;5078779;28;20020;-75
2021/10/31 05:19:40;;;;;;;4.75;2.20;;;22.60;87.40;;;;;;5075823;28;20070;-77
2021/10/31 05:22:07;;;;;;;3.85;2.00;;;22.50;85.30;;;;;;5079328;28;20020;-75
2021/10/31 05:24:35;;;;;;;5.45;2.70;;;22.70;86.50;;;;;;5080452;28;20021;-73
2021/10/31 05:27:02;;;;;;;4.90;2.47;;;22.80;86.00;;;;;;5077286;28;20115;-72
2021/10/31 05:29:30;;;;;;;4.10;2.40;;;22.80;85.20;;;;;;5076003;28;20032;-76
2021/10/31 05:31:57;;;;;;;6.10;2.35;;;22.80;86.40;;;;;;5078912;28;20102;-76
2021/10/31 05:34:26;;;;;;;3.47;2.35;;;23.10;86.30;;;;;;5077904;28;20024;-76
2021/10/31 05:36:53;;;;;;;5.95;2.17;;;23.10;85.80;;;;;;5080936;28;20509;-74
2021/10/31 05:39:20;;;;;;;2.42;2.22;;;23.50;87.00;;;;;;5077825;28;20024;-80
2021/10/31 05:41:48;;;;;;;3.47;2.00;;;23.20;85.80;;;;;;5079076;28;20036;-78
2021/10/31 05:44:15;;;;;;;3.97;2.00;;;23.00;87.60;;;;;;5077153;28;20032;-79
2021/10/31 05:46:42;;;;;;;4.93;2.22;;;23.20;88.20;;;;;;5076151;28;20033;-75
2021/10/31 05:49:10;;;;;;;4.63;2.28;;;23.60;87.70;;;;;;5082166;28;20034;-78
2021/10/31 05:51:37;;;;;;;6.05;2.13;;;23.00;87.00;;;;;;5077704;28;20044;-76
2021/10/31 05:54:04;;;;;;;4.50;2.10;;;23.10;86.30;;;;;;5076577;28;20013;-74
2021/10/31 05:56:32;;;;;;;2.63;1.73;;;23.20;85.60;;;;;;5078041;28;20016;-79
2021/10/31 05:58:59;;;;;;;3.00;1.73;;;23.20;84.40;;;;;;5075781;28;20024;-77
2021/10/31 06:01:26;;;;;;;6.68;2.00;;;23.10;84.40;;;;;;5076453;28;20032;-79
2021/10/31 06:03:55;;;;;;;3.25;1.92;;;23.30;86.30;;;;;;5076913;28;20155;-78
2021/10/31 06:06:24;;;;;;;3.50;2.15;;;23.50;86.10;;;;;;5077581;28;20035;-78
2021/10/31 06:08:51;;;;;;;3.88;2.05;;;23.30;85.40;;;;;;5074527;28;20442;-78
2021/10/31 06:11:21;;;;;;;;;;;23.30;85.80;;;;;;5077108;28;20086;-77
2021/10/31 06:13:48;;;;;;;4.25;2.30;;;23.50;86.10;;;;;;5075157;28;19911;-76
2021/10/31 06:16:16;;;;;;;2.92;2.20;;;23.40;86.40;;;;;;5075148;28;20043;-78
2021/10/31 06:18:43;;;;;;;4.63;2.30;;;23.40;87.50;;;;;;5077712;28;20045;-76
2021/10/31 06:21:10;;;;;;;3.33;2.30;;;23.60;86.60;;;;;;5076050;28;20028;-78
2021/10/31 06:23:38;;;;;;;4.28;2.00;;;23.60;86.00;;;;;;5076474;28;20078;-79
2021/10/31 06:26:06;;;;;;;4.85;2.40;;;23.40;86.50;;;;;;5075366;28;20027;-77
2021/10/31 06:28:33;;;;;;;3.20;2.20;;;23.40;87.10;;;;;;5075025;28;20028;-76
2021/10/31 06:31:01;;;;;;;7.13;3.90;;;23.90;87.10;;;;;;5076255;28;20073;-77
2021/10/31 06:33:28;;;;;;;5.65;3.70;;;23.70;85.70;;;;;;5077701;28;20017;-79
2021/10/31 06:35:55;;;;;;;4.07;2.35;;;23.80;86.10;;;;;;5074442;28;20116;-79
2021/10/31 06:38:23;;;;;;;5.40;3.58;;;23.90;85.30;;;;;;5078143;28;20342;-78
2021/10/31 06:40:50;;;;;;;7.07;4.43;;;23.80;85.00;;;;;;5079985;28;20567;-77
2021/10/31 06:43:20;;;;;;;8.38;4.95;;;23.60;86.20;;;;;;5082782;28;20021;-78
2021/10/31 06:45:48;;;;;;;3.88;3.53;;;23.50;86.40;;;;;;5078955;28;20029;-74
2021/10/31 06:48:16;;;;;;;3.90;2.60;;;23.10;87.30;;;;;;5078649;28;20568;-79
2021/10/31 06:50:43;;;;;;;3.30;2.53;;;23.30;87.90;;;;;;5079424;28;20192;-76
2021/10/31 06:53:13;;;;;;;3.53;2.88;;;23.20;87.80;;;;;;5081433;28;20059;-77
2021/10/31 06:55:42;;;;;;;3.63;2.92;;;22.50;88.70;;;;;;5081062;28;20020;-79
2021/10/31 06:58:09;;;;;;;3.15;2.50;;;21.90;89.00;;;;;;5078455;28;20032;-78
2021/10/31 07:00:41;;;;;;;3.38;2.30;;;21.80;90.30;;;;;;5078233;28;20025;-77
2021/10/31 07:03:08;;;;;;;4.47;2.63;;;22.00;90.00;;;;;;5057767;28;20028;-77
2021/10/31 07:05:39;;;;;;;5.25;2.60;;;21.40;90.40;;;;;;5076064;28;20074;-77
2021/10/31 07:08:06;;;;;;;;;;;21.30;90.70;;;;;;5076092;28;20169;-78
2021/10/31 07:10:33;;;;;;;3.90;2.65;;;21.00;91.10;;;;;;5076205;28;19908;-77
2021/10/31 07:13:00;;;;;;;4.22;2.20;;;20.70;91.90;;;;;;5075240;28;20025;-78
2021/10/31 07:15:28;;;;;;;4.38;2.58;;;20.50;92.30;;;;;;5077064;28;20432;-78
2021/10/31 07:17:57;;;;;;;4.93;2.40;;;20.30;92.60;;;;;;5059300;28;20064;-77
2021/10/31 07:20:28;;;;;;;6.50;2.63;;;20.20;92.90;;;;;;5077164;28;20031;-80
2021/10/31 07:22:55;;;;;;;3.22;2.00;;;20.20;93.00;;;;;;5060108;28;20044;-79
2021/10/31 07:25:27;;;;;;;5.25;2.30;;;19.90;92.60;;;;;;5078563;28;20485;-78
2021/10/31 07:27:55;;;;;;;3.85;2.25;;;19.80;93.10;;;;;;5080102;28;20040;-79
2021/10/31 07:30:23;;;;;;;5.03;2.67;;;19.60;93.20;;;;;;5076023;28;20037;-79
2021/10/31 07:32:59;;;;;;;4.00;2.58;;;19.50;93.70;;;;;;5079419;28;20025;-77
2021/10/31 07:35:28;;;;;;;5.07;2.67;;;19.50;94.00;;;;;;5076581;28;20104;-81
2021/10/31 07:37:56;;;;;;;4.75;3.70;;;19.30;94.20;;;;;;5078310;28;20051;-78
2021/10/31 07:40:24;;;;;;;6.35;3.70;;;19.20;94.30;;;;;;5078849;28;20032;-78
2021/10/31 07:42:52;;;;;;;5.10;4.57;;;19.00;94.60;;;;;;5079885;28;20032;-79
2021/10/31 07:45:20;;;;;;;6.28;4.43;;;18.80;94.80;;;;;;5076265;28;20040;-79
2021/10/31 07:47:47;;;;;;;4.28;3.80;;;18.60;95.30;;;;;;5085107;28;20024;-78
2021/10/31 07:50:15;;;;;;;4.72;2.95;;;18.40;95.70;;;;;;5079444;28;20032;-79
2021/10/31 07:52:46;;;;;;;4.07;3.00;;;18.20;95.80;;;;;;5084882;28;20079;-80
2021/10/31 07:55:20;;;;;;;6.57;2.90;;;18.20;96.10;;;;;;5057560;28;20089;-78
2021/10/31 07:57:49;;;;;;;9.23;3.40;;;18.10;96.20;;;;;;5072570;28;20483;-76
2021/10/31 08:00:16;;;;;;;2.85;2.65;;;18.10;96.30;;;;;;5073713;28;20028;-78
2021/10/31 08:02:44;;;;;;;5.38;3.00;;;18.00;96.50;;;;;;5075432;28;20024;-78
2021/10/31 08:05:11;;;;;;;4.85;2.60;;;18.00;97.40;;;;;;5074331;28;20028;-77
2021/10/31 08:07:39;;;;;;;4.78;2.70;;;18.00;97.60;;;;;;5072169;28;20389;-75
2021/10/31 08:10:07;;;;;;;6.05;3.38;;;17.90;97.60;;;;;;5073389;28;20017;-77
2021/10/31 08:12:36;;;;;;;3.22;2.80;;;17.70;97.80;;;;;;5071808;28;20025;-75
2021/10/31 08:15:03;;;;;;;5.60;3.03;;;17.70;98.10;;;;;;5074701;28;20112;-77
2021/10/31 08:17:31;;;;;;;4.15;3.35;;;17.60;98.50;;;;;;5075394;28;20040;-76
2021/10/31 08:19:58;;;;;;;4.93;3.50;;;17.60;98.60;;;;;;5075641;28;20028;-78
2021/10/31 08:22:25;;;;;;;3.28;2.97;;;17.50;99.00;;;;;;5075650;28;20056;-75
2021/10/31 08:24:53;;;;;;;4.97;3.05;;;17.40;99.10;;;;;;5077080;28;20099;-76
2021/10/31 08:27:20;;;;;;;4.85;3.65;;;17.40;99.50;;;;;;5076697;28;20391;-77
2021/10/31 08:29:48;;;;;;;5.88;4.32;;;17.40;99.80;;;;;;5076342;28;20039;-78
2021/10/31 08:32:15;;;;;;;5.15;4.28;;;17.30;99.90;;;;;;5075655;28;20161;-78
2021/10/31 08:34:43;;;;;;;4.22;3.70;;;17.30;99.90;;;;;;5074970;28;20021;-75
2021/10/31 08:37:10;;;;;;;5.70;3.58;;;17.30;99.90;;;;;;5077327;28;20055;-75
2021/10/31 08:39:37;;;;;;;12.73;8.07;;;17.30;99.90;;;;;;5076641;28;20380;-76
2021/10/31 08:42:05;;;;;;;5.07;4.32;;;17.20;99.90;;;;;;5077163;28;20070;-75
2021/10/31 08:44:35;;;;;;;8.23;3.97;;;17.20;99.90;;;;;;5076576;28;20469;-77
2021/10/31 08:47:02;;;;;;;4.55;3.70;;;17.20;99.90;;;;;;5075415;28;20031;-79
2021/10/31 08:49:29;;;;;;;7.68;4.38;;;17.20;99.90;;;;;;5076812;28;20394;-77
2021/10/31 08:51:57;;;;;;;14.38;12.85;;;17.20;99.90;;;;;;5076896;28;20069;-77
2021/10/31 08:54:25;;;;;;;8.23;5.47;;;17.10;99.90;;;;;;5075780;28;20116;-78
2021/10/31 08:56:52;;;;;;;6.40;4.65;;;17.10;99.90;;;;;;5075798;28;20073;-78
2021/10/31 08:59:19;;;;;;;5.47;4.97;;;17.10;99.90;;;;;;5077591;28;20023;-77
2021/10/31 09:01:47;;;;;;;6.38;4.00;;;17.00;99.90;;;;;;5076739;28;20028;-77
2021/10/31 09:04:14;;;;;;;6.70;4.25;;;17.00;99.90;;;;;;5076723;28;20108;-78
2021/10/31 09:06:41;;;;;;;5.50;3.92;;;17.00;99.90;;;;;;5076906;28;20016;-79
2021/10/31 09:09:11;;;;;;;5.38;3.88;;;17.00;99.90;;;;;;5087174;28;20456;-80
2021/10/31 09:11:38;;;;;;;5.85;3.80;;;16.90;99.90;;;;;;5087239;28;20047;-79
2021/10/31 09:14:05;;;;;;;6.20;3.83;;;16.90;99.90;;;;;;5086854;28;20032;-80
2021/10/31 09:16:34;;;;;;;5.85;3.78;;;16.90;99.90;;;;;;5080945;28;20048;-80
2021/10/31 09:19:01;;;;;;;5.20;4.10;;;16.80;99.90;;;;;;5085115;28;20036;-81
2021/10/31 09:21:29;;;;;;;8.32;4.10;;;16.80;99.90;;;;;;5081334;28;20069;-80
2021/10/31 09:23:56;;;;;;;5.80;4.00;;;16.80;99.90;;;;;;5074898;28;20029;-78
2021/10/31 09:26:24;;;;;;;7.70;4.60;;;16.80;99.90;;;;;;5076360;28;20085;-79
2021/10/31 09:28:52;;;;;;;4.70;3.70;;;16.70;99.90;;;;;;5076736;28;20025;-79
2021/10/31 09:31:19;;;;;;;5.00;3.88;;;16.70;99.90;;;;;;5076943;28;20393;-78
2021/10/31 09:33:47;;;;;;;7.88;4.18;;;16.70;99.90;;;;;;5074754;28;20032;-78
2021/10/31 09:36:15;;;;;;;6.85;4.00;;;16.80;99.90;;;;;;5075821;28;20021;-79
2021/10/31 09:38:43;;;;;;;5.90;3.58;;;16.70;99.90;;;;;;5058189;28;20028;-78
2021/10/31 09:41:13;;;;;;;5.72;3.85;;;16.70;99.90;;;;;;5076026;28;20031;-77
2021/10/31 09:43:51;;;;;;;6.28;4.50;;;16.70;99.90;;;;;;5074848;28;20021;-77
2021/10/31 09:46:20;;;;;;;6.40;4.00;;;16.70;99.90;;;;;;5075249;28;20535;-80
2021/10/31 09:48:47;;;;;;;4.80;3.78;;;16.70;99.90;;;;;;5076546;28;20086;-78
2021/10/31 09:51:15;;;;;;;7.15;3.80;;;16.70;99.90;;;;;;5075845;28;20021;-78
2021/10/31 09:53:44;;;;;;;6.13;4.07;;;16.70;99.90;;;;;;5076313;28;20020;-78
2021/10/31 09:56:11;;;;;;;6.07;4.10;;;16.60;99.90;;;;;;5075237;28;20028;-78
2021/10/31 09:58:42;;;;;;;6.10;4.00;;;16.60;99.90;;;;;;5074686;28;20024;-77
2021/10/31 10:01:36;;;;;;;6.22;4.60;;;16.60;99.90;;;;;;5076242;28;20028;-78
2021/10/31 10:04:04;;;;;;;4.70;4.20;;;16.60;99.90;;;;;;5074974;28;20032;-79
2021/10/31 10:06:32;;;;;;;7.18;4.25;;;16.50;99.90;;;;;;5074913;28;20116;-79
2021/10/31 10:09:09;;;;;;;6.85;4.10;;;16.70;99.90;;;;;;5077058;28;20036;-78
2021/10/31 10:11:42;;;;;;;5.40;4.13;;;16.60;99.90;;;;;;5075336;28;20043;-78
2021/10/31 10:14:25;;;;;;;6.50;4.00;;;16.60;99.90;;;;;;5075340;28;20036;-78
2021/10/31 10:17:01;;;;;;;5.43;3.90;;;16.50;99.90;;;;;;5074521;28;20032;-78
2021/10/31 10:19:32;;;;;;;6.78;3.92;;;16.50;99.90;;;;;;5075534;28;20382;-78
2021/10/31 10:22:07;;;;;;;4.50;3.80;;;16.50;99.90;;;;;;5075801;28;20066;-78
2021/10/31 10:24:41;;;;;;;6.22;3.78;;;16.50;99.90;;;;;;5074051;28;20032;-78
2021/10/31 10:27:09;;;;;;;5.55;3.47;;;16.40;99.90;;;;;;5074968;28;20475;-78
2021/10/31 10:29:41;;;;;;;5.47;3.67;;;16.40;99.90;;;;;;5074581;28;20067;-75
2021/10/31 10:32:12;;;;;;;7.32;4.00;;;16.40;99.90;;;;;;5073440;28;20066;-77
2021/10/31 10:34:52;;;;;;;5.95;4.25;;;16.40;99.90;;;;;;5074844;28;20025;-77
2021/10/31 10:37:23;;;;;;;5.70;4.40;;;16.40;99.90;;;;;;5074198;28;20021;-77
2021/10/31 10:39:55;;;;;;;6.72;4.30;;;16.30;99.90;;;;;;5074339;28;20085;-75
2021/10/31 10:42:26;;;;;;;6.72;4.63;;;16.40;99.90;;;;;;5073157;28;20024;-78
2021/10/31 10:44:57;;;;;;;;;;;16.30;99.90;;;;;;5075464;28;20152;-77
2021/10/31 10:47:25;;;;;;;5.45;4.38;;;16.30;99.90;;;;;;5074786;28;19905;-77
2021/10/31 10:49:54;;;;;;;7.82;5.00;;;16.20;99.90;;;;;;5073170;28;20485;-78
2021/10/31 10:52:37;;;;;;;7.65;4.95;;;16.20;99.90;;;;;;5073635;28;20477;-77
2021/10/31 10:55:20;;;;;;;7.28;4.25;;;16.20;99.90;;;;;;5073312;28;20017;-77
2021/10/31 10:57:55;;;;;;;9.52;4.63;;;16.20;99.90;;;;;;5074634;28;20027;-78
2021/10/31 11:00:27;;;;;;;5.10;4.32;;;16.20;99.90;;;;;;5075411;28;20048;-78
2021/10/31 11:03:04;;;;;;;6.13;4.57;;;16.10;99.90;;;;;;5075028;28;20066;-78
2021/10/31 11:05:41;;;;;;;6.13;4.13;;;16.10;99.90;;;;;;5075646;28;20028;-77
2021/10/31 11:08:17;;;;;;;7.78;4.60;;;16.10;99.90;;;;;;5074157;28;20025;-78
2021/10/31 11:10:45;;;;;;;7.10;4.45;;;16.00;99.90;;;;;;5073428;28;20029;-79
2021/10/31 11:13:13;;;;;;;5.10;4.50;;;16.00;99.90;;;;;;5073522;28;20088;-78
2021/10/31 11:15:40;;;;;;;5.40;4.30;;;16.00;99.90;;;;;;5073163;28;20031;-77
2021/10/31 11:18:10;;;;;;;5.20;4.68;;;16.00;99.90;;;;;;5072555;28;20040;-77
2021/10/31 11:20:41;;;;;;;6.80;4.97;;;16.00;99.90;;;;;;5072571;28;20048;-76
2021/10/31 11:23:11;;;;;;;8.20;4.50;;;16.00;99.90;;;;;;5073850;28;20052;-76
2021/10/31 11:25:42;;;;;;;4.65;4.20;;;15.90;99.90;;;;;;5072527;28;20450;-76
2021/10/31 11:28:12;;;;;;;6.22;4.00;;;15.90;99.90;;;;;;5072557;28;20175;-76
2021/10/31 11:30:42;;;;;;;4.57;4.13;;;15.90;99.90;;;;;;5072610;28;20060;-77
2021/10/31 11:33:14;;;;;;;8.05;4.30;;;15.90;99.90;;;;;;5072782;28;20052;-77
2021/10/31 11:35:42;;;;;;;6.35;4.28;;;15.80;99.90;;;;;;5072937;28;20477;-78
2021/10/31 11:38:22;;;;;;;8.00;4.53;;;15.70;99.90;;;;;;5072777;28;20029;-76
2021/10/31 11:41:16;;;;;;;5.07;4.57;;;15.70;99.90;;;;;;5072357;28;20020;-76
2021/10/31 11:43:52;;;;;;;5.05;4.20;;;15.70;99.90;;;;;;5053172;28;20043;-76
2021/10/31 11:46:35;;;;;;;5.30;4.65;;;15.70;99.90;;;;;;5073732;28;20517;-74
2021/10/31 11:49:03;;;;;;;6.07;4.80;;;15.70;99.90;;;;;;5074392;28;20267;-77
2021/10/31 11:51:50;;;;;;;5.80;4.75;;;15.70;99.90;;;;;;5077645;28;20028;-77
2021/10/31 11:54:20;;;;;;;4.85;4.45;;;15.60;99.90;;;;;;5077605;28;20423;-78
2021/10/31 11:56:51;;;;;;;5.43;4.80;;;15.60;99.90;;;;;;5059581;28;20111;-77
2021/10/31 11:59:19;;;;;;;;;;;15.60;99.90;;;;;;5076662;28;20512;-77
2021/10/31 12:01:49;;;;;;;6.35;4.85;;;15.60;99.90;;;;;;5077641;28;19904;-77
2021/10/31 12:07:46;;;;;;;5.32;4.50;;;15.50;99.90;;;;;;5077466;28;20457;-77
2021/10/31 12:10:32;;;;;;;7.45;4.90;;;15.50;99.90;;;;;;5076288;28;20050;-77
2021/10/31 12:13:20;;;;;;;6.68;5.15;;;15.50;99.90;;;;;;5077276;28;20020;-77
2021/10/31 12:16:05;;;;;;;8.02;5.72;;;15.40;99.90;;;;;;5075955;28;20020;-77
2021/10/31 12:18:52;;;;;;;5.30;4.78;;;15.50;99.90;;;;;;5075520;28;20086;-77
2021/10/31 12:21:28;;;;;;;7.70;4.80;;;15.40;99.90;;;;;;5077250;28;20413;-77
2021/10/31 12:24:11;;;;;;;7.00;4.85;;;15.40;99.90;;;;;;5076963;28;20036;-77
2021/10/31 12:26:48;;;;;;;5.75;4.70;;;15.30;99.90;;;;;;5076866;28;20023;-77
2021/10/31 12:29:27;;;;;;;4.82;4.35;;;15.40;99.90;;;;;;5075597;28;20036;-77
2021/10/31 12:31:55;;;;;;;6.95;4.10;;;15.30;99.90;;;;;;5076778;28;20462;-77
2021/10/31 12:34:26;;;;;;;5.50;4.10;;;15.30;99.90;;;;;;5076116;28;20543;-77
2021/10/31 12:36:55;;;;;;;6.82;4.30;;;15.20;99.90;;;;;;5076956;28;20078;-77
2021/10/31 12:39:32;;;;;;;7.13;4.57;;;15.20;99.90;;;;;;5075568;28;20120;-78
2021/10/31 12:42:29;;;;;;;4.10;3.72;;;15.20;99.90;;;;;;5075464;28;20423;-77
2021/10/31 12:45:26;;;;;;;5.13;4.57;;;15.10;99.90;;;;;;5059054;28;20028;-77
2021/10/31 12:48:15;;;;;;;6.28;4.47;;;15.10;99.90;;;;;;5076362;28;20037;-77
2021/10/31 12:50:52;;;;;;;9.18;5.25;;;15.10;99.90;;;;;;5074622;28;20036;-76
2021/10/31 12:53:19;;;;;;;5.07;4.50;;;15.00;99.90;;;;;;5076311;28;20104;-77
2021/10/31 12:55:47;;;;;;;4.95;4.38;;;15.00;99.90;;;;;;5076150;28;20047;-77
2021/10/31 12:58:21;;;;;;;5.13;4.40;;;15.00;99.90;;;;;;5075969;28;20020;-77
2021/10/31 13:00:53;;;;;;;6.30;4.60;;;15.00;99.90;;;;;;5074687;28;20024;-77
2021/10/31 13:03:21;;;;;;;5.72;5.22;;;14.90;99.90;;;;;;5074679;28;20071;-77
2021/10/31 13:05:49;;;;;;;6.00;5.40;;;14.90;99.90;;;;;;5074957;28;20065;-77
2021/10/31 13:08:19;;;;;;;5.60;4.90;;;14.90;99.90;;;;;;5074781;28;20024;-77
2021/10/31 13:10:52;;;;;;;5.97;5.37;;;14.90;99.90;;;;;;5076527;28;20024;-77
2021/10/31 13:13:29;;;;;;;5.60;5.10;;;14.80;99.90;;;;;;5076444;28;20304;-77